Strona główna
METAR-TAF:

METAR-TAF

Lotnisko :

Port lotniczy Singapur-Seletar

Singapur, Singapur

Szerokość geograficzna: 01-25-08N, Długość geograficzna: 103-51-57E, wysokość: 11 m

Aktualna obserwacja pogody

Raport powstał 44 minut temu, godzina 23:00 UTC
Wiatr 6 kt od północno-północny wschód
Temperatura 26°C
Wilgotność 89%
Ciśnienie 1011 hPa
Widzialność 10 km lub więcej
Mało chmury na wysokości 1600 ft
Przerywane chmury na wysokości 30000 ft

METAR: WSSL 232300Z 02006KT 9999 FEW016 BKN300 26/24 Q1011

czas: 07:44 (23:44 UTC)

Prognoza

Raport powstał 44 minut temu, godzina 23:00 UTC
Prognoza ważna od 24 godzina 00 UTC do 25 godzina 06 UTC
Wiatr 12 kt od północno-północny wschód
Widzialność 10 km lub więcej
Mało chmury na wysokości 1500 ft
Rozproszone chmury na wysokości 2000 ft
Przejściowo
od 24 godzina 04 UTC do 24 godzina 10 UTC
Wiatr 15 kt od północno-północny wschód w porywach dochodzący do 25 kt

TAF: WSSL 232300Z 2400/2506 03012KT 9999 FEW015 SCT020 TEMPO 2404/2410 03015G25KT

Obserwacja i prognoza pogody dla ponad 4000 lotnisk (raport METAR i TAF).

Dostępne stacje oznaczono żółtymi i czerwonymi punktami na mapie.

Najedź kursorem aby zobaczyć nazwę stacji.

Kliknij aby zobaczyć obserwacje i prognozy pogody.

Aby zmienić mapę: kliknij na zielony przycisk z czarnym krzyżykiem, aby powiększyć; na zielony przycisk z myślnikiem, aby pomniejszyć; na zielone strzałki, aby przejść do map sąsiednich.


METAR-TAF: